Main page
METAR-TAF:

METAR-TAF

Airports :

City of Derry Airport

Derry, Northern Ireland

latitude: 55-03N, longitude: 007-09W, elevation: 9 m

Current weather observation

The report was made 9 hours and 34 minutes ago, at 19:20 UTC
Wind 7 kt from the East/Southeast
Temperature 9°C
Humidity 87%
Pressure 998 hPa
Visibility 10 km or more
Few clouds at a height of 2400 ft
Scattered clouds at a height of 3400 ft
light rain showers

METAR: EGAE 231920Z 12007KT 9999 -SHRA FEW024 SCT034 09/07 Q0998 RESHRA

Time: 05:54 (04:54 UTC)

Forecast

The report was made 11 hours and 54 minutes ago, at 17:00 UTC
Forecast valid from 23 at 18 UTC to 23 at 20 UTC
Wind 5 kt from variable directions
Visibility 10 km or more
Scattered clouds at a height of 2500 ft
Probability 30% :
Temporary
from 23 at 18 UTC to 23 at 20 UTC
Visibility: 7000 m
rain showers

TAF: EGAE 231700Z 2318/2320 VRB05KT 9999 SCT025 PROB30 TEMPO 2318/2320 7000 SHRA

Weather observations and forecasts of more than 4000 airports (METAR and TAF reports).

The available stations are represented by yellow and red dots on the map.

Hover mouse over dot to see the name of the station.

Then click to see weather observations and forecasts.

To change the map : click on the green buttons with a black cross to zoom in, on the green button with a dash to zoom out, or on the green arrows for adjacent maps.


METAR-TAF: